Terminal Aerodrome Forecast
Issued by NWS Cleveland, OH

Home | Current Version | Previous Version | Text Only | Print | Product List | Glossary Off
Versions: 1 2 3 4 5 6 7 8 9 10 11 12 13 14 15 16 17 18

666
FTUS41 KCLE 231733
TAFERI
TAF
KERI 231733Z 2318/2418 25010G20KT P6SM SCT035
     FM232000 28005KT P6SM SCT035
     FM240200 VRB03KT 6SM -DZ BR OVC025
     FM240800 12008KT 4SM -SHRA BR OVC015
     FM241300 18010KT P6SM SCT025
     FM241400 20015G25KT P6SM SCT025=

USA.gov is the U.S. government's official web portal to all federal, state and local government web resources and services.